MA6 weather

Monponsett Pond Seaplane Base
Halifax, Massachusetts, United States

Public forecast

Using degrees Fahrenheit for public forecast. Weather courtesy of forecast.io.

Closest aviation weather report (METAR) to Monponsett Pond Seaplane Base

Closest report is Plymouth Municipal Airport, 7.9 nm (14.7 km) SE. Retrieved 2020/08/06 10:52 UTC (1 hour ago):

KPYM 061052Z AUTO 00000KT 10SM SCT070 19/18 A3012 RMK AO2 SLP197 T01890178

Closest aviation forecast (TAF) to Monponsett Pond Seaplane Base

Closest forecast is General Edward Lawrence Logan International Airport, 22.5 nm (41.6 km) NNW. Retrieved 2020/08/06 06:39 UTC (5 hours ago):

TAF KBOS 060531Z 0606/0712 29004KT P6SM FEW060 FM061600 22004KT P6SM FEW250 FM070000 22004KT P6SM SCT150 FM070600 35003KT P6SM BKN150 FM071000 03004KT P6SM BKN070